createdAt,value
2023-02-11T00:01:28.305Z,78.17
2023-02-11T00:03:56.744Z,78.18
2023-02-11T00:06:27.974Z,78.07
2023-02-11T00:08:56.007Z,78.07
2023-02-11T00:11:25.553Z,78.42
2023-02-11T00:13:53.857Z,78.20
2023-02-11T00:16:22.218Z,78.18
2023-02-11T00:18:53.011Z,78.11
2023-02-11T00:21:23.776Z,78.21
2023-02-11T00:23:53.429Z,78.35
2023-02-11T00:26:24.193Z,78.42
2023-02-11T00:28:52.781Z,78.12
2023-02-11T00:31:22.597Z,78.47
2023-02-11T00:33:50.662Z,78.00
2023-02-11T00:36:22.595Z,78.45
2023-02-11T00:38:52.993Z,78.04
2023-02-11T00:41:21.890Z,78.25
2023-02-11T00:43:50.206Z,78.01
2023-02-11T00:46:18.015Z,77.97
2023-02-11T00:48:48.292Z,78.30
2023-02-11T00:51:16.158Z,78.70
2023-02-11T00:53:43.898Z,78.05
2023-02-11T00:56:15.169Z,78.12
2023-02-11T00:58:42.824Z,78.15
2023-02-11T01:01:10.932Z,78.39
2023-02-11T01:03:38.692Z,77.88
2023-02-11T01:06:07.248Z,77.98
2023-02-11T01:08:34.979Z,77.73
2023-02-11T01:11:05.329Z,77.98
2023-02-11T01:13:37.100Z,77.86
2023-02-11T01:16:08.376Z,77.78
2023-02-11T01:18:36.217Z,78.03
2023-02-11T01:21:04.341Z,78.04
2023-02-11T01:23:32.052Z,77.59
2023-02-11T01:25:59.776Z,77.85
2023-02-11T01:28:30.056Z,77.45
2023-02-11T01:30:59.188Z,77.51
2023-02-11T01:33:26.891Z,77.56
2023-02-11T01:35:54.816Z,77.68
2023-02-11T01:38:24.826Z,77.56
2023-02-11T01:40:55.340Z,77.75
2023-02-11T01:43:23.735Z,77.43
2023-02-11T01:46:01.569Z,77.32
2023-02-11T01:48:33.512Z,77.65
2023-02-11T01:51:07.368Z,77.40
2023-02-11T01:53:53.795Z,77.54
2023-02-11T01:56:39.872Z,77.40
2023-02-11T01:59:13.518Z,77.57
2023-02-11T02:01:49.507Z,77.32
2023-02-11T02:04:19.719Z,77.48
2023-02-11T02:06:55.665Z,77.62
2023-02-11T02:09:27.774Z,77.58
2023-02-11T02:11:55.566Z,77.10
2023-02-11T02:14:23.300Z,76.94
2023-02-11T02:16:52.471Z,77.48
2023-02-11T02:19:50.968Z,77.09
2023-02-11T02:22:54.517Z,76.90
2023-02-11T02:25:49.205Z,77.57
2023-02-11T02:28:44.700Z,77.38
2023-02-11T02:31:38.464Z,77.78
2023-02-11T02:34:15.210Z,77.21
2023-02-11T02:36:49.894Z,77.71
2023-02-11T02:39:22.891Z,77.62
2023-02-11T02:41:53.829Z,77.57
2023-02-11T02:44:22.270Z,77.81
2023-02-11T02:46:50.027Z,77.46
2023-02-11T02:49:19.203Z,77.46
2023-02-11T02:52:01.642Z,77.60
2023-02-11T02:54:58.656Z,77.16
2023-02-11T02:57:33.500Z,77.59
2023-02-11T03:00:12.735Z,77.88
2023-02-11T03:02:47.945Z,77.58
2023-02-11T03:05:22.667Z,77.56
2023-02-11T03:07:55.390Z,77.77
2023-02-11T03:10:28.005Z,78.08
2023-02-11T03:12:58.045Z,78.19
2023-02-11T03:15:29.241Z,78.00
2023-02-11T03:18:01.703Z,77.78
2023-02-11T03:20:32.721Z,77.78
2023-02-11T03:23:07.386Z,77.90
2023-02-11T03:25:42.269Z,78.16
2023-02-11T03:28:15.262Z,78.18
2023-02-11T03:30:48.115Z,77.99
2023-02-11T03:33:20.980Z,78.14
2023-02-11T03:35:55.191Z,78.37
2023-02-11T03:38:27.035Z,78.24
2023-02-11T03:40:57.072Z,78.50
2023-02-11T03:43:29.762Z,78.56
2023-02-11T03:45:58.201Z,78.40
2023-02-11T03:48:31.114Z,78.70
2023-02-11T03:51:03.020Z,78.65
2023-02-11T03:53:30.808Z,78.90
2023-02-11T03:56:03.728Z,78.80
2023-02-11T03:58:31.917Z,79.23
2023-02-11T04:00:59.662Z,78.95
2023-02-11T04:03:29.552Z,78.89
2023-02-11T04:05:57.291Z,79.19
2023-02-11T04:08:26.402Z,79.31
2023-02-11T04:10:54.098Z,79.70
2023-02-11T04:13:21.801Z,80.19
2023-02-11T04:15:50.078Z,80.01
2023-02-11T04:18:18.118Z,80.10
2023-02-11T04:20:45.862Z,80.48
2023-02-11T04:23:13.973Z,80.34
2023-02-11T04:25:43.612Z,80.00
2023-02-11T04:28:11.429Z,79.74
2023-02-11T04:30:39.218Z,79.81
2023-02-11T04:33:07.048Z,80.21
2023-02-11T04:35:34.792Z,80.12
2023-02-11T04:38:02.476Z,80.11
2023-02-11T04:40:30.144Z,80.13
2023-02-11T04:42:59.343Z,79.93
2023-02-11T04:45:27.095Z,80.43
2023-02-11T04:47:54.785Z,80.04
2023-02-11T04:50:22.500Z,80.17
2023-02-11T04:52:50.120Z,80.23
2023-02-11T04:55:17.976Z,80.41
2023-02-11T04:57:45.687Z,80.67
2023-02-11T05:00:16.254Z,80.36
2023-02-11T05:02:43.906Z,80.66
2023-02-11T05:05:14.025Z,80.75
2023-02-11T05:07:41.715Z,80.33
2023-02-11T05:10:09.882Z,80.35
2023-02-11T05:12:37.546Z,80.54
2023-02-11T05:15:05.877Z,80.56
2023-02-11T05:17:34.916Z,80.69
2023-02-11T05:20:05.950Z,80.98
2023-02-11T05:22:33.665Z,81.61
2023-02-11T05:25:01.436Z,81.45
2023-02-11T05:27:29.123Z,81.42
2023-02-11T05:29:56.773Z,81.05
2023-02-11T05:32:40.067Z,82.33
2023-02-11T05:35:07.956Z,82.11
2023-02-11T05:37:35.699Z,82.23
2023-02-11T05:40:03.414Z,82.37
2023-02-11T05:42:31.048Z,82.55
2023-02-11T05:44:58.862Z,82.81
2023-02-11T05:47:26.578Z,82.80
2023-02-11T05:49:56.260Z,82.65
2023-02-11T05:52:24.227Z,83.26
2023-02-11T05:54:52.215Z,82.85
2023-02-11T05:57:20.386Z,83.64
2023-02-11T05:59:48.047Z,83.57
2023-02-11T06:02:16.728Z,83.41
2023-02-11T06:04:44.589Z,83.39
2023-02-11T06:07:13.635Z,83.17
2023-02-11T06:09:41.419Z,83.63
2023-02-11T06:12:09.117Z,83.65
2023-02-11T06:14:36.788Z,83.68
2023-02-11T06:17:05.071Z,83.94
2023-02-11T06:19:32.716Z,83.63
2023-02-11T06:22:00.405Z,83.90
2023-02-11T06:24:54.727Z,83.99
2023-02-11T06:27:17.901Z,83.78
2023-02-11T06:29:45.903Z,84.32
2023-02-11T06:32:36.969Z,83.96
2023-02-11T06:35:01.541Z,83.91
2023-02-11T06:37:29.275Z,83.47
2023-02-11T06:39:58.294Z,83.58
2023-02-11T06:42:25.929Z,83.76
2023-02-11T06:44:53.688Z,83.57
2023-02-11T06:47:21.396Z,83.83
2023-02-11T06:49:49.061Z,83.95
2023-02-11T06:52:16.691Z,83.65
2023-02-11T06:54:44.407Z,83.68
2023-02-11T06:57:13.438Z,83.69
2023-02-11T06:59:41.053Z,83.63
2023-02-11T07:02:10.404Z,83.77
2023-02-11T07:04:38.182Z,83.65
2023-02-11T07:07:05.878Z,83.51
2023-02-11T07:09:33.602Z,83.40
2023-02-11T07:12:01.310Z,83.67
2023-02-11T07:14:30.389Z,83.59
2023-02-11T07:16:58.166Z,83.79
2023-02-11T07:19:25.814Z,84.01
2023-02-11T07:21:53.485Z,83.78
2023-02-11T07:24:21.146Z,83.67
2023-02-11T07:26:48.768Z,83.73
2023-02-11T07:29:16.446Z,83.65
2023-02-11T07:31:47.389Z,83.34
2023-02-11T07:34:15.153Z,83.58
2023-02-11T07:36:43.659Z,83.57
2023-02-11T07:39:11.461Z,83.82
2023-02-11T07:41:39.650Z,83.86
2023-02-11T07:44:07.775Z,83.79
2023-02-11T07:46:35.828Z,83.77
2023-02-11T07:49:04.949Z,84.08
2023-02-11T07:51:32.881Z,83.81
2023-02-11T07:54:01.233Z,83.67
2023-02-11T07:56:29.870Z,83.74
2023-02-11T07:59:00.961Z,83.62
2023-02-11T08:01:29.251Z,83.63
2023-02-11T08:03:58.740Z,83.89
2023-02-11T08:06:30.262Z,83.66
2023-02-11T08:08:58.320Z,84.11
2023-02-11T08:11:27.778Z,83.88
2023-02-11T08:13:57.438Z,83.79
2023-02-11T08:16:27.307Z,83.52
2023-02-11T08:18:57.302Z,83.79
2023-02-11T08:21:27.130Z,83.50
2023-02-11T08:23:55.119Z,83.39
2023-02-11T08:26:24.674Z,83.45
2023-02-11T08:28:53.897Z,83.21
2023-02-11T08:31:23.905Z,83.53
2023-02-11T08:33:52.246Z,83.23
2023-02-11T08:36:23.166Z,83.55
2023-02-11T08:38:52.391Z,83.37
2023-02-11T08:41:20.121Z,83.35
2023-02-11T08:43:47.861Z,83.27
2023-02-11T08:46:18.429Z,83.41
2023-02-11T08:48:47.125Z,83.47
2023-02-11T08:51:17.300Z,83.16
2023-02-11T08:53:45.367Z,83.27
2023-02-11T08:56:17.271Z,83.73
2023-02-11T08:58:45.011Z,83.56
2023-02-11T09:01:13.761Z,83.20
2023-02-11T09:03:41.814Z,83.20
2023-02-11T09:06:11.316Z,83.11
2023-02-11T09:08:40.372Z,83.23
2023-02-11T09:11:08.974Z,83.09
2023-02-11T09:13:38.727Z,82.93
2023-02-11T09:16:07.184Z,83.37
2023-02-11T09:18:34.915Z,83.14
2023-02-11T09:21:07.585Z,82.91
2023-02-11T09:23:35.764Z,82.97
2023-02-11T09:26:09.204Z,83.13
2023-02-11T09:28:38.759Z,83.25
2023-02-11T09:31:07.586Z,82.87
2023-02-11T09:33:35.512Z,82.95
2023-02-11T09:36:03.483Z,83.41
2023-02-11T09:38:31.347Z,83.14
2023-02-11T09:40:59.673Z,82.93
2023-02-11T09:43:34.135Z,82.78
2023-02-11T09:46:03.830Z,83.02
2023-02-11T09:48:39.387Z,82.75
2023-02-11T09:51:14.038Z,82.50
2023-02-11T09:53:44.236Z,82.65
2023-02-11T09:56:14.683Z,82.25
2023-02-11T09:58:44.478Z,82.41
2023-02-11T10:01:21.824Z,82.24
2023-02-11T10:04:01.883Z,82.56
2023-02-11T10:06:40.789Z,82.78
2023-02-11T10:09:21.144Z,82.21
2023-02-11T10:11:59.936Z,82.71
2023-02-11T10:14:50.448Z,82.47
2023-02-11T10:17:29.705Z,82.57
2023-02-11T10:20:09.763Z,82.26
2023-02-11T10:22:42.420Z,82.23
2023-02-11T10:25:21.205Z,81.98
2023-02-11T10:27:49.743Z,81.92
2023-02-11T10:30:24.762Z,81.83
2023-02-11T10:32:58.779Z,81.74
2023-02-11T10:35:27.227Z,82.00
2023-02-11T10:37:56.031Z,82.44
2023-02-11T10:40:25.496Z,82.03
2023-02-11T10:42:56.175Z,82.45
2023-02-11T10:45:29.364Z,82.23
2023-02-11T10:47:59.504Z,81.74
2023-02-11T10:50:29.501Z,82.40
2023-02-11T10:53:14.280Z,82.09
2023-02-11T10:55:51.224Z,82.21
2023-02-11T10:58:27.003Z,82.06
2023-02-11T11:00:56.822Z,82.36
2023-02-11T11:03:28.732Z,82.20
2023-02-11T11:05:59.763Z,82.66
2023-02-11T11:08:40.640Z,82.05
2023-02-11T11:11:10.814Z,82.39
2023-02-11T11:13:40.616Z,82.53
2023-02-11T11:16:23.498Z,82.61
2023-02-11T11:18:54.668Z,82.63
2023-02-11T11:21:27.209Z,82.58
2023-02-11T11:23:56.551Z,81.92
2023-02-11T11:26:26.392Z,82.18
2023-02-11T11:29:01.167Z,82.45
2023-02-11T11:31:32.895Z,82.11
2023-02-11T11:34:05.931Z,81.66
2023-02-11T11:36:37.714Z,82.04
2023-02-11T11:39:19.703Z,81.75
2023-02-11T11:41:52.815Z,81.87
2023-02-11T11:44:27.714Z,81.60
2023-02-11T11:47:24.301Z,82.02
2023-02-11T11:50:06.272Z,81.39
2023-02-11T11:52:45.438Z,81.87
2023-02-11T11:55:19.419Z,81.62
2023-02-11T11:57:47.416Z,81.75
2023-02-11T12:00:17.928Z,81.56
2023-02-11T12:03:20.797Z,81.41
2023-02-11T12:06:01.503Z,81.79
2023-02-11T12:08:43.753Z,81.65
2023-02-11T12:11:20.664Z,81.62
2023-02-11T12:14:05.250Z,82.11
2023-02-11T12:16:42.390Z,81.97
2023-02-11T12:19:42.900Z,81.60
2023-02-11T12:22:27.392Z,81.87
2023-02-11T12:25:10.650Z,81.33
2023-02-11T12:27:49.371Z,81.73
2023-02-11T12:30:41.892Z,81.85
2023-02-11T12:33:21.416Z,81.77
2023-02-11T12:35:59.669Z,82.00
2023-02-11T12:38:52.324Z,82.12
2023-02-11T12:41:58.731Z,81.53
2023-02-11T12:44:35.153Z,81.49
2023-02-11T12:47:13.873Z,81.73
2023-02-11T12:50:03.384Z,81.67
2023-02-11T12:52:46.153Z,81.47
2023-02-11T12:55:23.499Z,81.60
2023-02-11T12:57:54.092Z,81.77
2023-02-11T13:00:25.641Z,81.48
2023-02-11T13:02:59.824Z,81.59
2023-02-11T13:05:30.475Z,81.48
2023-02-11T13:08:05.952Z,81.41
2023-02-11T13:10:37.885Z,81.03
2023-02-11T13:13:17.598Z,80.60
2023-02-11T13:15:52.382Z,80.63
2023-02-11T13:18:35.977Z,80.63
2023-02-11T13:21:33.459Z,80.90
2023-02-11T13:24:09.232Z,80.89
2023-02-11T13:26:47.235Z,80.72
2023-02-11T13:29:23.598Z,80.38
2023-02-11T13:31:55.776Z,80.65
2023-02-11T13:34:28.328Z,80.91
2023-02-11T13:36:56.674Z,80.93
2023-02-11T13:39:25.276Z,80.60
2023-02-11T13:42:04.003Z,80.54
2023-02-11T13:44:35.763Z,80.43
2023-02-11T13:47:06.374Z,80.41
2023-02-11T13:49:40.601Z,80.32
2023-02-11T13:52:23.476Z,79.74
2023-02-11T13:54:52.716Z,79.92
2023-02-11T13:57:40.153Z,79.77
2023-02-11T14:01:06.302Z,79.41
2023-02-11T14:03:57.333Z,79.48
2023-02-11T14:07:01.238Z,79.37
2023-02-11T14:09:40.703Z,79.11
2023-02-11T14:12:24.223Z,79.04
2023-02-11T14:15:39.093Z,79.65
2023-02-11T14:18:59.458Z,79.30
2023-02-11T14:21:35.453Z,79.39
2023-02-11T14:24:46.499Z,79.32
2023-02-11T14:27:26.669Z,79.60
2023-02-11T14:30:14.982Z,79.24
2023-02-11T14:33:01.639Z,78.72
2023-02-11T14:35:45.092Z,78.86
2023-02-11T14:38:22.984Z,79.05
2023-02-11T14:40:56.863Z,79.02
2023-02-11T14:43:29.546Z,78.90
2023-02-11T14:45:59.726Z,78.40
2023-02-11T14:48:32.518Z,78.13
2023-02-11T14:51:03.178Z,78.37
2023-02-11T14:53:33.697Z,78.50
2023-02-11T14:56:01.685Z,78.29
2023-02-11T14:58:31.682Z,78.24
2023-02-11T15:01:02.017Z,78.38
2023-02-11T15:03:42.669Z,78.05
2023-02-11T15:06:19.385Z,78.02
2023-02-11T15:08:50.568Z,78.29
2023-02-11T15:11:21.222Z,78.17
2023-02-11T15:13:50.409Z,78.46
2023-02-11T15:16:22.215Z,78.70
2023-02-11T15:18:54.212Z,78.64
2023-02-11T15:21:24.724Z,78.50
2023-02-11T15:24:01.091Z,78.30
2023-02-11T15:26:29.469Z,78.67
2023-02-11T15:28:57.644Z,78.98
2023-02-11T15:31:28.324Z,78.77
2023-02-11T15:34:07.655Z,78.48
2023-02-11T15:36:37.083Z,78.74
2023-02-11T15:39:18.801Z,79.00
2023-02-11T15:41:48.541Z,79.02
2023-02-11T15:44:29.768Z,79.11
2023-02-11T15:46:57.757Z,78.95
2023-02-11T15:49:27.513Z,78.57
2023-02-11T15:51:58.452Z,79.24
2023-02-11T15:54:29.471Z,78.96
2023-02-11T15:57:03.967Z,79.41
2023-02-11T15:59:38.133Z,79.43
2023-02-11T16:02:17.127Z,79.21
2023-02-11T16:04:53.483Z,79.01
2023-02-11T16:07:43.178Z,79.65
2023-02-11T16:10:25.447Z,79.23
2023-02-11T16:12:55.733Z,79.80
2023-02-11T16:15:44.483Z,79.69
2023-02-11T16:18:39.387Z,79.67
2023-02-11T16:21:16.736Z,79.71
2023-02-11T16:23:51.849Z,79.68
2023-02-11T16:26:28.830Z,79.76
2023-02-11T16:29:07.938Z,79.74
2023-02-11T16:31:37.514Z,79.57
2023-02-11T16:34:13.075Z,79.72
2023-02-11T16:36:42.699Z,80.00
2023-02-11T16:39:11.427Z,79.80
2023-02-11T16:41:39.795Z,79.80
2023-02-11T16:44:08.288Z,79.70
2023-02-11T16:46:38.244Z,79.90
2023-02-11T16:49:11.693Z,79.75
2023-02-11T16:51:41.081Z,80.27
2023-02-11T16:54:14.261Z,79.61
2023-02-11T16:56:42.153Z,79.95
2023-02-11T16:59:10.733Z,80.01
2023-02-11T17:01:40.176Z,80.01
2023-02-11T17:04:11.728Z,80.22
2023-02-11T17:06:39.559Z,79.93
2023-02-11T17:09:08.569Z,80.06
2023-02-11T17:11:37.775Z,80.28
2023-02-11T17:14:05.543Z,79.98
2023-02-11T17:16:33.355Z,80.59
2023-02-11T17:19:04.231Z,79.98
2023-02-11T17:21:32.261Z,80.17
2023-02-11T17:24:00.578Z,80.80
2023-02-11T17:26:28.515Z,80.74
2023-02-11T17:28:57.804Z,80.71
2023-02-11T17:31:25.839Z,80.51
2023-02-11T17:33:53.666Z,80.83
2023-02-11T17:36:21.460Z,80.46
2023-02-11T17:38:49.193Z,80.76
2023-02-11T17:41:16.973Z,80.19
2023-02-11T17:43:44.963Z,80.64
2023-02-11T17:46:14.312Z,80.57
2023-02-11T17:48:42.221Z,80.30
2023-02-11T17:51:23.975Z,80.54
2023-02-11T17:53:51.802Z,80.64
2023-02-11T17:56:19.844Z,80.57
2023-02-11T17:58:50.296Z,80.82
2023-02-11T18:01:19.479Z,80.74
2023-02-11T18:03:50.162Z,80.81
2023-02-11T18:06:17.964Z,80.78
2023-02-11T18:08:45.709Z,80.85
2023-02-11T18:11:15.153Z,80.84
2023-02-11T18:13:43.377Z,81.51
2023-02-11T18:16:15.529Z,81.37
2023-02-11T18:18:53.958Z,80.97
2023-02-11T18:21:23.385Z,81.31
2023-02-11T18:23:51.557Z,81.15
2023-02-11T18:26:21.615Z,81.21
2023-02-11T18:28:49.478Z,81.51
2023-02-11T18:31:18.332Z,81.30
2023-02-11T18:33:47.910Z,81.36
2023-02-11T18:36:16.928Z,80.77
2023-02-11T18:38:49.906Z,81.71
2023-02-11T18:41:17.700Z,81.38
2023-02-11T18:43:45.634Z,81.61
2023-02-11T18:46:15.389Z,81.53
2023-02-11T18:48:44.777Z,81.90
2023-02-11T18:51:15.863Z,81.62
2023-02-11T18:53:44.436Z,81.64
2023-02-11T18:56:15.279Z,81.17
2023-02-11T18:58:43.479Z,81.59
2023-02-11T19:01:13.924Z,81.69
2023-02-11T19:03:41.803Z,81.82
2023-02-11T19:06:16.913Z,81.76
2023-02-11T19:08:44.693Z,82.02
2023-02-11T19:11:12.955Z,82.58
2023-02-11T19:13:40.703Z,82.48
2023-02-11T19:16:11.438Z,82.04
2023-02-11T19:18:39.654Z,82.34
2023-02-11T19:21:09.238Z,82.34
2023-02-11T19:23:39.379Z,82.56
2023-02-11T19:26:07.432Z,82.31
2023-02-11T19:28:37.195Z,82.41
2023-02-11T19:31:09.280Z,82.44
2023-02-11T19:33:37.781Z,82.87
2023-02-11T19:36:07.423Z,82.33
2023-02-11T19:38:35.820Z,82.51
2023-02-11T19:41:05.427Z,82.73
2023-02-11T19:43:33.340Z,82.27
2023-02-11T19:46:02.950Z,82.41
2023-02-11T19:48:31.129Z,82.45
2023-02-11T19:50:59.374Z,82.60
2023-02-11T19:53:27.731Z,82.08
2023-02-11T19:55:55.552Z,82.33
2023-02-11T19:58:24.718Z,82.49
2023-02-11T20:00:52.554Z,82.69
2023-02-11T20:03:20.291Z,82.28
2023-02-11T20:05:48.045Z,82.64
2023-02-11T20:08:17.122Z,83.17
2023-02-11T20:10:44.948Z,82.43
2023-02-11T20:13:12.684Z,82.86
2023-02-11T20:15:41.955Z,82.70
2023-02-11T20:18:09.700Z,82.80
2023-02-11T20:20:39.383Z,83.06
2023-02-11T20:23:07.144Z,83.14
2023-02-11T20:25:34.933Z,82.75
2023-02-11T20:28:03.678Z,82.97
2023-02-11T20:30:31.465Z,83.01
2023-02-11T20:33:00.599Z,83.20
2023-02-11T20:35:28.331Z,83.22
2023-02-11T20:37:56.161Z,83.20
2023-02-11T20:40:23.903Z,83.56
2023-02-11T20:42:52.417Z,83.47
2023-02-11T20:45:20.110Z,82.82
2023-02-11T20:47:47.846Z,83.16
2023-02-11T20:50:17.054Z,83.12
2023-02-11T20:52:44.847Z,83.32
2023-02-11T20:55:13.124Z,83.14
2023-02-11T20:57:40.847Z,83.51
2023-02-11T21:00:13.139Z,83.39
2023-02-11T21:02:42.569Z,82.94
2023-02-11T21:05:10.326Z,83.72
2023-02-11T21:07:39.497Z,83.79
2023-02-11T21:10:16.990Z,83.63
2023-02-11T21:12:44.711Z,83.68
2023-02-11T21:15:13.603Z,83.56
2023-02-11T21:17:41.419Z,83.55
2023-02-11T21:20:15.097Z,84.00
2023-02-11T21:22:44.131Z,83.40
2023-02-11T21:25:11.833Z,83.80
2023-02-11T21:27:39.739Z,83.83
2023-02-11T21:30:08.813Z,83.55
2023-02-11T21:32:36.584Z,84.08
2023-02-11T21:35:04.348Z,83.27
2023-02-11T21:37:32.254Z,83.33
2023-02-11T21:40:01.404Z,83.45
2023-02-11T21:42:29.155Z,83.51
2023-02-11T21:44:56.876Z,84.07
2023-02-11T21:47:24.591Z,83.84
2023-02-11T21:49:52.380Z,84.12
2023-02-11T21:52:20.126Z,84.11
2023-02-11T21:54:50.505Z,84.12
2023-02-11T21:57:19.827Z,83.69
2023-02-11T21:59:47.514Z,83.52
2023-02-11T22:02:15.217Z,84.06
2023-02-11T22:04:42.978Z,83.78
2023-02-11T22:07:10.769Z,83.90
2023-02-11T22:09:39.328Z,84.15
2023-02-11T22:12:08.669Z,84.00
2023-02-11T22:14:38.276Z,84.06
2023-02-11T22:17:08.488Z,84.45
2023-02-11T22:19:36.232Z,84.13
2023-02-11T22:22:04.069Z,84.01
2023-02-11T22:24:31.728Z,83.87
2023-02-11T22:26:59.421Z,83.54
2023-02-11T22:29:27.117Z,84.17
2023-02-11T22:31:56.262Z,83.78
2023-02-11T22:34:24.011Z,83.84
2023-02-11T22:36:51.723Z,84.17
2023-02-11T22:39:19.473Z,84.01
2023-02-11T22:41:49.952Z,83.53
2023-02-11T22:44:18.368Z,83.78
2023-02-11T22:46:46.060Z,83.59
2023-02-11T22:49:17.208Z,83.75
2023-02-11T22:51:44.995Z,83.64
2023-02-11T22:54:15.337Z,84.13
2023-02-11T22:56:43.404Z,84.02
2023-02-11T22:59:13.896Z,84.43
2023-02-11T23:01:42.384Z,84.54
2023-02-11T23:04:12.881Z,84.28
2023-02-11T23:06:42.021Z,84.40
2023-02-11T23:09:12.180Z,84.49
2023-02-11T23:11:40.951Z,84.87
2023-02-11T23:14:11.952Z,84.41
2023-02-11T23:16:39.943Z,84.97
2023-02-11T23:19:09.951Z,84.96
2023-02-11T23:21:41.056Z,84.76
2023-02-11T23:24:11.915Z,84.98
2023-02-11T23:26:40.372Z,84.82
2023-02-11T23:29:08.857Z,84.62
2023-02-11T23:31:39.803Z,85.13
2023-02-11T23:34:08.518Z,84.43
2023-02-11T23:36:36.579Z,84.62
2023-02-11T23:39:15.301Z,84.74
2023-02-11T23:41:43.070Z,84.86
2023-02-11T23:44:11.761Z,84.65
2023-02-11T23:46:39.847Z,84.76
2023-02-11T23:49:07.652Z,84.92
2023-02-11T23:51:35.412Z,84.82
2023-02-11T23:54:03.390Z,84.88
2023-02-11T23:56:33.130Z,84.64
2023-02-11T23:59:00.957Z,84.09
